sensor_id;sensor_type;location;lat;lon;timestamp;temperature;humidity
9209;DHT22;4639;48.862;9.188;2022-07-01T00:00:37;16.10;99.90
9209;DHT22;4639;48.862;9.188;2022-07-01T00:03:03;16.00;99.90
9209;DHT22;4639;48.862;9.188;2022-07-01T00:05:29;15.70;99.90
9209;DHT22;4639;48.862;9.188;2022-07-01T00:07:55;15.60;99.90
9209;DHT22;4639;48.862;9.188;2022-07-01T00:10:21;15.60;99.90
9209;DHT22;4639;48.862;9.188;2022-07-01T00:12:46;15.50;99.90
9209;DHT22;4639;48.862;9.188;2022-07-01T00:15:12;15.40;99.90
9209;DHT22;4639;48.862;9.188;2022-07-01T00:17:38;15.40;99.90
9209;DHT22;4639;48.862;9.188;2022-07-01T00:20:06;15.30;99.90
9209;DHT22;4639;48.862;9.188;2022-07-01T00:22:33;15.20;99.90
9209;DHT22;4639;48.862;9.188;2022-07-01T00:24:59;15.20;99.90
9209;DHT22;4639;48.862;9.188;2022-07-01T00:27:25;15.30;99.90
9209;DHT22;4639;48.862;9.188;2022-07-01T00:29:51;15.30;99.90
9209;DHT22;4639;48.862;9.188;2022-07-01T00:32:16;15.40;99.90
9209;DHT22;4639;48.862;9.188;2022-07-01T00:34:42;15.30;99.90
9209;DHT22;4639;48.862;9.188;2022-07-01T00:37:08;15.00;99.90
9209;DHT22;4639;48.862;9.188;2022-07-01T00:39:33;15.00;99.90
9209;DHT22;4639;48.862;9.188;2022-07-01T00:42:01;14.90;99.90
9209;DHT22;4639;48.862;9.188;2022-07-01T00:44:27;14.90;99.90
9209;DHT22;4639;48.862;9.188;2022-07-01T00:46:53;14.90;99.90
9209;DHT22;4639;48.862;9.188;2022-07-01T00:49:19;14.90;99.90
9209;DHT22;4639;48.862;9.188;2022-07-01T00:51:45;14.90;99.90
9209;DHT22;4639;48.862;9.188;2022-07-01T00:54:11;14.90;99.90
9209;DHT22;4639;48.862;9.188;2022-07-01T00:56:37;14.90;99.90
9209;DHT22;4639;48.862;9.188;2022-07-01T00:59:03;14.90;99.90
9209;DHT22;4639;48.862;9.188;2022-07-01T01:01:29;14.80;99.90
9209;DHT22;4639;48.862;9.188;2022-07-01T01:03:55;14.70;99.90
9209;DHT22;4639;48.862;9.188;2022-07-01T01:06:21;14.70;99.90
9209;DHT22;4639;48.862;9.188;2022-07-01T01:08:46;14.70;99.90
9209;DHT22;4639;48.862;9.188;2022-07-01T01:11:12;14.80;99.90
9209;DHT22;4639;48.862;9.188;2022-07-01T01:13:39;15.00;99.90
9209;DHT22;4639;48.862;9.188;2022-07-01T01:16:04;14.70;99.90
9209;DHT22;4639;48.862;9.188;2022-07-01T01:18:30;14.60;99.90
9209;DHT22;4639;48.862;9.188;2022-07-01T01:20:56;14.60;99.90
9209;DHT22;4639;48.862;9.188;2022-07-01T01:23:22;14.70;99.90
9209;DHT22;4639;48.862;9.188;2022-07-01T01:25:48;14.70;99.90
9209;DHT22;4639;48.862;9.188;2022-07-01T01:28:13;14.70;99.90
9209;DHT22;4639;48.862;9.188;2022-07-01T01:30:39;14.70;99.90
9209;DHT22;4639;48.862;9.188;2022-07-01T01:33:05;14.70;99.90
9209;DHT22;4639;48.862;9.188;2022-07-01T01:35:33;14.50;99.90
9209;DHT22;4639;48.862;9.188;2022-07-01T01:37:59;14.50;99.90
9209;DHT22;4639;48.862;9.188;2022-07-01T01:40:25;14.50;99.90
9209;DHT22;4639;48.862;9.188;2022-07-01T01:42:51;14.50;99.90
9209;DHT22;4639;48.862;9.188;2022-07-01T01:45:17;14.50;99.90
9209;DHT22;4639;48.862;9.188;2022-07-01T01:47:43;14.40;99.90
9209;DHT22;4639;48.862;9.188;2022-07-01T01:50:11;14.40;99.90
9209;DHT22;4639;48.862;9.188;2022-07-01T01:52:38;14.50;99.90
9209;DHT22;4639;48.862;9.188;2022-07-01T01:55:04;14.40;99.90
9209;DHT22;4639;48.862;9.188;2022-07-01T01:57:30;14.50;99.90
9209;DHT22;4639;48.862;9.188;2022-07-01T01:59:56;14.50;99.90
9209;DHT22;4639;48.862;9.188;2022-07-01T02:02:21;14.50;99.90
9209;DHT22;4639;48.862;9.188;2022-07-01T02:04:47;14.50;99.90
9209;DHT22;4639;48.862;9.188;2022-07-01T02:07:13;14.50;99.90
9209;DHT22;4639;48.862;9.188;2022-07-01T02:09:39;14.50;99.90
9209;DHT22;4639;48.862;9.188;2022-07-01T02:12:05;14.50;99.90
9209;DHT22;4639;48.862;9.188;2022-07-01T02:14:30;14.50;99.90
9209;DHT22;4639;48.862;9.188;2022-07-01T02:16:56;14.60;99.90
9209;DHT22;4639;48.862;9.188;2022-07-01T02:19:22;14.50;99.90
9209;DHT22;4639;48.862;9.188;2022-07-01T02:21:47;14.50;99.90
9209;DHT22;4639;48.862;9.188;2022-07-01T02:24:13;14.50;99.90
9209;DHT22;4639;48.862;9.188;2022-07-01T02:26:38;14.40;99.90
9209;DHT22;4639;48.862;9.188;2022-07-01T02:29:04;14.40;99.90
9209;DHT22;4639;48.862;9.188;2022-07-01T02:31:29;14.30;99.90
9209;DHT22;4639;48.862;9.188;2022-07-01T02:33:55;14.40;99.90
9209;DHT22;4639;48.862;9.188;2022-07-01T02:36:21;14.30;99.90
9209;DHT22;4639;48.862;9.188;2022-07-01T02:38:46;14.30;99.90
9209;DHT22;4639;48.862;9.188;2022-07-01T02:41:12;14.30;99.90
9209;DHT22;4639;48.862;9.188;2022-07-01T02:43:37;14.20;99.90
9209;DHT22;4639;48.862;9.188;2022-07-01T02:46:03;14.20;99.90
9209;DHT22;4639;48.862;9.188;2022-07-01T02:48:29;14.30;99.90
9209;DHT22;4639;48.862;9.188;2022-07-01T02:50:55;14.10;99.90
9209;DHT22;4639;48.862;9.188;2022-07-01T02:53:20;14.10;99.90
9209;DHT22;4639;48.862;9.188;2022-07-01T02:55:47;14.20;99.90
9209;DHT22;4639;48.862;9.188;2022-07-01T02:58:12;14.20;99.90
9209;DHT22;4639;48.862;9.188;2022-07-01T03:00:38;14.20;99.90
9209;DHT22;4639;48.862;9.188;2022-07-01T03:03:03;14.20;99.90
9209;DHT22;4639;48.862;9.188;2022-07-01T03:05:29;14.10;99.90
9209;DHT22;4639;48.862;9.188;2022-07-01T03:07:55;14.10;99.90
9209;DHT22;4639;48.862;9.188;2022-07-01T03:10:20;14.20;99.90
9209;DHT22;4639;48.862;9.188;2022-07-01T03:12:46;14.20;99.90
9209;DHT22;4639;48.862;9.188;2022-07-01T03:15:14;14.30;99.90
9209;DHT22;4639;48.862;9.188;2022-07-01T03:17:42;14.40;99.90
9209;DHT22;4639;48.862;9.188;2022-07-01T03:20:10;14.40;99.90
9209;DHT22;4639;48.862;9.188;2022-07-01T03:22:37;14.40;99.90
9209;DHT22;4639;48.862;9.188;2022-07-01T03:25:03;14.50;99.90
9209;DHT22;4639;48.862;9.188;2022-07-01T03:27:30;14.30;99.90
9209;DHT22;4639;48.862;9.188;2022-07-01T03:29:56;14.30;99.90
9209;DHT22;4639;48.862;9.188;2022-07-01T03:32:22;14.30;99.90
9209;DHT22;4639;48.862;9.188;2022-07-01T03:34:49;14.30;99.90
9209;DHT22;4639;48.862;9.188;2022-07-01T03:37:15;14.50;99.90
9209;DHT22;4639;48.862;9.188;2022-07-01T03:39:42;14.50;99.90
9209;DHT22;4639;48.862;9.188;2022-07-01T03:42:08;14.60;99.90
9209;DHT22;4639;48.862;9.188;2022-07-01T03:44:35;14.60;99.90
9209;DHT22;4639;48.862;9.188;2022-07-01T03:47:01;14.60;99.90
9209;DHT22;4639;48.862;9.188;2022-07-01T03:49:28;14.50;99.90
9209;DHT22;4639;48.862;9.188;2022-07-01T03:51:54;14.60;99.90
9209;DHT22;4639;48.862;9.188;2022-07-01T03:54:20;14.60;99.90
9209;DHT22;4639;48.862;9.188;2022-07-01T03:56:55;14.60;99.90
9209;DHT22;4639;48.862;9.188;2022-07-01T03:59:21;14.60;99.90
9209;DHT22;4639;48.862;9.188;2022-07-01T04:01:46;14.60;99.90
9209;DHT22;4639;48.862;9.188;2022-07-01T04:04:12;14.50;99.90
9209;DHT22;4639;48.862;9.188;2022-07-01T04:06:38;14.50;99.90
9209;DHT22;4639;48.862;9.188;2022-07-01T04:09:04;14.40;99.90
9209;DHT22;4639;48.862;9.188;2022-07-01T04:11:29;14.40;99.90
9209;DHT22;4639;48.862;9.188;2022-07-01T04:13:55;14.50;99.90
9209;DHT22;4639;48.862;9.188;2022-07-01T04:16:21;14.50;99.90
9209;DHT22;4639;48.862;9.188;2022-07-01T04:18:48;14.70;99.90
9209;DHT22;4639;48.862;9.188;2022-07-01T04:21:14;14.60;99.90
9209;DHT22;4639;48.862;9.188;2022-07-01T04:23:59;14.60;99.90
9209;DHT22;4639;48.862;9.188;2022-07-01T04:26:24;14.60;99.90
9209;DHT22;4639;48.862;9.188;2022-07-01T04:28:51;14.60;99.90
9209;DHT22;4639;48.862;9.188;2022-07-01T04:31:17;14.60;99.90
9209;DHT22;4639;48.862;9.188;2022-07-01T04:33:42;14.40;99.90
9209;DHT22;4639;48.862;9.188;2022-07-01T04:36:08;14.50;99.90
9209;DHT22;4639;48.862;9.188;2022-07-01T04:38:34;14.30;99.90
9209;DHT22;4639;48.862;9.188;2022-07-01T04:40:59;14.30;99.90
9209;DHT22;4639;48.862;9.188;2022-07-01T04:43:45;14.40;99.90
9209;DHT22;4639;48.862;9.188;2022-07-01T04:46:11;14.50;99.90
9209;DHT22;4639;48.862;9.188;2022-07-01T04:48:36;14.50;99.90
9209;DHT22;4639;48.862;9.188;2022-07-01T04:51:02;14.50;99.90
9209;DHT22;4639;48.862;9.188;2022-07-01T04:53:28;14.60;99.90
9209;DHT22;4639;48.862;9.188;2022-07-01T04:55:53;14.60;99.90
9209;DHT22;4639;48.862;9.188;2022-07-01T04:58:19;14.70;99.90
9209;DHT22;4639;48.862;9.188;2022-07-01T05:00:44;14.60;99.90
9209;DHT22;4639;48.862;9.188;2022-07-01T05:03:10;14.50;99.90
9209;DHT22;4639;48.862;9.188;2022-07-01T05:05:35;14.50;99.90
9209;DHT22;4639;48.862;9.188;2022-07-01T05:08:25;14.50;99.90
9209;DHT22;4639;48.862;9.188;2022-07-01T05:10:50;14.50;99.90
9209;DHT22;4639;48.862;9.188;2022-07-01T05:13:16;14.60;99.90
9209;DHT22;4639;48.862;9.188;2022-07-01T05:15:41;14.50;99.90
9209;DHT22;4639;48.862;9.188;2022-07-01T05:18:07;14.40;99.90
9209;DHT22;4639;48.862;9.188;2022-07-01T05:20:51;14.30;99.90
9209;DHT22;4639;48.862;9.188;2022-07-01T05:23:35;14.10;99.90
9209;DHT22;4639;48.862;9.188;2022-07-01T05:26:02;14.20;99.90
9209;DHT22;4639;48.862;9.188;2022-07-01T05:28:27;14.30;99.90
9209;DHT22;4639;48.862;9.188;2022-07-01T05:30:53;14.30;99.90
9209;DHT22;4639;48.862;9.188;2022-07-01T05:33:19;14.20;99.90
9209;DHT22;4639;48.862;9.188;2022-07-01T05:35:49;14.20;99.90
9209;DHT22;4639;48.862;9.188;2022-07-01T05:38:15;14.30;99.90
9209;DHT22;4639;48.862;9.188;2022-07-01T05:40:40;14.30;99.90
9209;DHT22;4639;48.862;9.188;2022-07-01T05:43:06;14.40;99.90
9209;DHT22;4639;48.862;9.188;2022-07-01T05:45:31;14.50;99.90
9209;DHT22;4639;48.862;9.188;2022-07-01T05:47:57;14.50;99.90
9209;DHT22;4639;48.862;9.188;2022-07-01T05:50:23;14.60;99.90
9209;DHT22;4639;48.862;9.188;2022-07-01T05:52:49;14.70;99.90
9209;DHT22;4639;48.862;9.188;2022-07-01T05:55:15;14.70;99.90
9209;DHT22;4639;48.862;9.188;2022-07-01T05:57:40;14.60;99.90
9209;DHT22;4639;48.862;9.188;2022-07-01T06:00:07;14.60;99.90
9209;DHT22;4639;48.862;9.188;2022-07-01T06:02:35;14.70;99.90
9209;DHT22;4639;48.862;9.188;2022-07-01T06:05:00;14.90;99.90
9209;DHT22;4639;48.862;9.188;2022-07-01T06:07:26;15.10;99.90
9209;DHT22;4639;48.862;9.188;2022-07-01T06:09:51;14.80;99.90
9209;DHT22;4639;48.862;9.188;2022-07-01T06:12:17;14.80;99.90
9209;DHT22;4639;48.862;9.188;2022-07-01T06:14:42;14.90;99.90
9209;DHT22;4639;48.862;9.188;2022-07-01T06:17:09;14.80;99.90
9209;DHT22;4639;48.862;9.188;2022-07-01T06:19:35;14.80;99.90
9209;DHT22;4639;48.862;9.188;2022-07-01T06:22:00;14.70;99.90
9209;DHT22;4639;48.862;9.188;2022-07-01T06:24:26;14.70;99.90
9209;DHT22;4639;48.862;9.188;2022-07-01T06:26:52;14.70;99.90
9209;DHT22;4639;48.862;9.188;2022-07-01T06:29:17;14.70;99.90
9209;DHT22;4639;48.862;9.188;2022-07-01T06:31:43;14.70;99.90
9209;DHT22;4639;48.862;9.188;2022-07-01T06:34:08;14.70;99.90
9209;DHT22;4639;48.862;9.188;2022-07-01T06:36:34;14.70;99.90
9209;DHT22;4639;48.862;9.188;2022-07-01T06:39:00;15.00;99.90
9209;DHT22;4639;48.862;9.188;2022-07-01T06:41:26;14.70;99.90
9209;DHT22;4639;48.862;9.188;2022-07-01T06:43:58;14.60;99.90
9209;DHT22;4639;48.862;9.188;2022-07-01T06:46:24;14.60;99.90
9209;DHT22;4639;48.862;9.188;2022-07-01T06:48:50;14.80;99.90
9209;DHT22;4639;48.862;9.188;2022-07-01T06:51:16;14.40;99.90
9209;DHT22;4639;48.862;9.188;2022-07-01T06:53:42;14.50;99.90
9209;DHT22;4639;48.862;9.188;2022-07-01T06:56:10;14.70;99.90
9209;DHT22;4639;48.862;9.188;2022-07-01T06:58:36;14.70;99.90
9209;DHT22;4639;48.862;9.188;2022-07-01T07:01:02;14.70;99.90
9209;DHT22;4639;48.862;9.188;2022-07-01T07:03:27;14.70;99.90
9209;DHT22;4639;48.862;9.188;2022-07-01T07:05:53;14.70;99.90
9209;DHT22;4639;48.862;9.188;2022-07-01T07:08:19;14.70;99.90
9209;DHT22;4639;48.862;9.188;2022-07-01T07:10:44;14.70;99.90
9209;DHT22;4639;48.862;9.188;2022-07-01T07:13:10;14.70;99.90
9209;DHT22;4639;48.862;9.188;2022-07-01T07:15:36;14.70;99.90
9209;DHT22;4639;48.862;9.188;2022-07-01T07:18:01;14.70;99.90
9209;DHT22;4639;48.862;9.188;2022-07-01T07:20:27;14.70;99.90
9209;DHT22;4639;48.862;9.188;2022-07-01T07:22:53;14.90;99.90
9209;DHT22;4639;48.862;9.188;2022-07-01T07:25:20;14.80;99.90
9209;DHT22;4639;48.862;9.188;2022-07-01T07:27:46;14.90;99.90
9209;DHT22;4639;48.862;9.188;2022-07-01T07:30:15;14.90;99.90
9209;DHT22;4639;48.862;9.188;2022-07-01T07:32:41;14.90;99.90
9209;DHT22;4639;48.862;9.188;2022-07-01T07:35:08;15.00;99.90
9209;DHT22;4639;48.862;9.188;2022-07-01T07:37:34;15.00;99.90
9209;DHT22;4639;48.862;9.188;2022-07-01T07:40:00;14.90;99.90
9209;DHT22;4639;48.862;9.188;2022-07-01T07:42:26;14.80;99.90
9209;DHT22;4639;48.862;9.188;2022-07-01T07:44:52;14.90;99.90
9209;DHT22;4639;48.862;9.188;2022-07-01T07:47:18;14.90;99.90
9209;DHT22;4639;48.862;9.188;2022-07-01T07:49:44;15.00;99.90
9209;DHT22;4639;48.862;9.188;2022-07-01T07:52:09;14.90;99.90
9209;DHT22;4639;48.862;9.188;2022-07-01T07:54:35;14.80;99.90
9209;DHT22;4639;48.862;9.188;2022-07-01T07:57:01;14.90;99.90
9209;DHT22;4639;48.862;9.188;2022-07-01T07:59:26;14.90;99.90
9209;DHT22;4639;48.862;9.188;2022-07-01T08:01:52;14.90;99.90
9209;DHT22;4639;48.862;9.188;2022-07-01T08:04:17;14.90;99.90
9209;DHT22;4639;48.862;9.188;2022-07-01T08:06:43;14.80;99.90
9209;DHT22;4639;48.862;9.188;2022-07-01T08:09:08;14.90;99.90
9209;DHT22;4639;48.862;9.188;2022-07-01T08:11:34;14.90;99.90
9209;DHT22;4639;48.862;9.188;2022-07-01T08:14:00;14.90;99.90
9209;DHT22;4639;48.862;9.188;2022-07-01T08:16:25;14.90;99.90
9209;DHT22;4639;48.862;9.188;2022-07-01T08:18:51;14.90;99.90
9209;DHT22;4639;48.862;9.188;2022-07-01T08:21:16;14.70;99.90
9209;DHT22;4639;48.862;9.188;2022-07-01T08:23:42;14.70;99.90
9209;DHT22;4639;48.862;9.188;2022-07-01T08:26:08;15.10;99.90
9209;DHT22;4639;48.862;9.188;2022-07-01T08:28:33;14.90;99.90
9209;DHT22;4639;48.862;9.188;2022-07-01T08:30:59;14.90;99.90
9209;DHT22;4639;48.862;9.188;2022-07-01T08:33:24;14.90;99.90
9209;DHT22;4639;48.862;9.188;2022-07-01T08:35:50;15.00;99.90
9209;DHT22;4639;48.862;9.188;2022-07-01T08:38:16;15.00;99.90
9209;DHT22;4639;48.862;9.188;2022-07-01T08:40:41;15.00;99.90
9209;DHT22;4639;48.862;9.188;2022-07-01T08:43:07;15.10;99.90
9209;DHT22;4639;48.862;9.188;2022-07-01T08:45:35;14.90;99.90
9209;DHT22;4639;48.862;9.188;2022-07-01T08:48:02;15.00;99.90
9209;DHT22;4639;48.862;9.188;2022-07-01T08:50:30;15.10;99.90
9209;DHT22;4639;48.862;9.188;2022-07-01T08:52:55;15.20;99.90
9209;DHT22;4639;48.862;9.188;2022-07-01T08:55:21;15.10;99.90
9209;DHT22;4639;48.862;9.188;2022-07-01T08:57:47;15.10;99.90
9209;DHT22;4639;48.862;9.188;2022-07-01T09:00:14;15.00;99.90
9209;DHT22;4639;48.862;9.188;2022-07-01T09:02:57;15.10;99.90
9209;DHT22;4639;48.862;9.188;2022-07-01T09:05:25;15.10;99.90
9209;DHT22;4639;48.862;9.188;2022-07-01T09:08:05;15.40;99.90
9209;DHT22;4639;48.862;9.188;2022-07-01T09:10:32;15.20;99.90
9209;DHT22;4639;48.862;9.188;2022-07-01T09:13:05;15.10;99.90
9209;DHT22;4639;48.862;9.188;2022-07-01T09:15:33;15.10;99.90
9209;DHT22;4639;48.862;9.188;2022-07-01T09:18:13;15.00;99.90
9209;DHT22;4639;48.862;9.188;2022-07-01T09:20:41;15.00;99.90
9209;DHT22;4639;48.862;9.188;2022-07-01T09:23:18;15.10;99.90
9209;DHT22;4639;48.862;9.188;2022-07-01T09:28:12;15.00;99.90
9209;DHT22;4639;48.862;9.188;2022-07-01T09:30:40;15.00;99.90
9209;DHT22;4639;48.862;9.188;2022-07-01T09:35:33;15.20;99.90
9209;DHT22;4639;48.862;9.188;2022-07-01T09:37:59;15.10;99.90
9209;DHT22;4639;48.862;9.188;2022-07-01T09:40:25;15.10;99.90
9209;DHT22;4639;48.862;9.188;2022-07-01T09:42:51;15.00;99.90
9209;DHT22;4639;48.862;9.188;2022-07-01T09:45:16;15.00;99.90
9209;DHT22;4639;48.862;9.188;2022-07-01T09:47:42;15.10;99.90
9209;DHT22;4639;48.862;9.188;2022-07-01T09:50:11;15.10;99.90
9209;DHT22;4639;48.862;9.188;2022-07-01T09:52:37;15.10;99.90
9209;DHT22;4639;48.862;9.188;2022-07-01T09:55:05;15.10;99.90
9209;DHT22;4639;48.862;9.188;2022-07-01T09:57:31;15.10;99.90
9209;DHT22;4639;48.862;9.188;2022-07-01T09:59:57;15.10;99.90
9209;DHT22;4639;48.862;9.188;2022-07-01T10:02:23;15.40;99.90
9209;DHT22;4639;48.862;9.188;2022-07-01T10:04:53;15.20;99.90
9209;DHT22;4639;48.862;9.188;2022-07-01T10:07:39;15.20;99.90
9209;DHT22;4639;48.862;9.188;2022-07-01T10:12:55;15.40;99.90
9209;DHT22;4639;48.862;9.188;2022-07-01T10:15:21;15.50;99.90
9209;DHT22;4639;48.862;9.188;2022-07-01T10:17:49;15.50;99.90
9209;DHT22;4639;48.862;9.188;2022-07-01T10:20:23;15.60;99.90
9209;DHT22;4639;48.862;9.188;2022-07-01T10:22:49;15.70;99.90
9209;DHT22;4639;48.862;9.188;2022-07-01T10:28:27;16.00;99.90
9209;DHT22;4639;48.862;9.188;2022-07-01T10:31:34;16.20;99.90
9209;DHT22;4639;48.862;9.188;2022-07-01T10:33:57;16.30;99.90
9209;DHT22;4639;48.862;9.188;2022-07-01T10:36:31;16.50;99.90
9209;DHT22;4639;48.862;9.188;2022-07-01T10:41:27;17.00;99.90
9209;DHT22;4639;48.862;9.188;2022-07-01T10:43:56;16.90;99.90
9209;DHT22;4639;48.862;9.188;2022-07-01T10:46:41;16.90;99.90
9209;DHT22;4639;48.862;9.188;2022-07-01T10:49:15;17.10;99.90
9209;DHT22;4639;48.862;9.188;2022-07-01T10:51:57;17.00;99.90
9209;DHT22;4639;48.862;9.188;2022-07-01T10:57:20;16.80;99.90
9209;DHT22;4639;48.862;9.188;2022-07-01T10:59:55;17.00;99.90
9209;DHT22;4639;48.862;9.188;2022-07-01T11:04:49;17.70;99.90
9209;DHT22;4639;48.862;9.188;2022-07-01T11:07:15;18.10;99.90
9209;DHT22;4639;48.862;9.188;2022-07-01T11:09:41;18.50;99.90
9209;DHT22;4639;48.862;9.188;2022-07-01T11:12:07;18.80;99.90
9209;DHT22;4639;48.862;9.188;2022-07-01T11:14:40;18.80;99.90
9209;DHT22;4639;48.862;9.188;2022-07-01T11:17:07;18.50;99.90
9209;DHT22;4639;48.862;9.188;2022-07-01T11:19:33;18.30;99.90
9209;DHT22;4639;48.862;9.188;2022-07-01T11:21:59;18.40;99.90
9209;DHT22;4639;48.862;9.188;2022-07-01T11:24:25;18.60;99.90
9209;DHT22;4639;48.862;9.188;2022-07-01T11:26:55;19.00;99.90
9209;DHT22;4639;48.862;9.188;2022-07-01T11:29:26;19.20;99.90
9209;DHT22;4639;48.862;9.188;2022-07-01T11:31:52;19.40;99.90
9209;DHT22;4639;48.862;9.188;2022-07-01T11:34:18;19.50;99.90
9209;DHT22;4639;48.862;9.188;2022-07-01T11:36:46;19.60;99.90
9209;DHT22;4639;48.862;9.188;2022-07-01T11:39:31;19.40;99.90
9209;DHT22;4639;48.862;9.188;2022-07-01T11:42:03;19.80;99.90
9209;DHT22;4639;48.862;9.188;2022-07-01T11:44:41;20.30;99.90
9209;DHT22;4639;48.862;9.188;2022-07-01T11:47:10;20.50;99.90
9209;DHT22;4639;48.862;9.188;2022-07-01T11:49:47;20.40;99.90
9209;DHT22;4639;48.862;9.188;2022-07-01T11:52:13;20.20;99.90
9209;DHT22;4639;48.862;9.188;2022-07-01T11:54:40;19.80;99.90
9209;DHT22;4639;48.862;9.188;2022-07-01T11:57:18;19.30;99.90
9209;DHT22;4639;48.862;9.188;2022-07-01T11:59:46;19.00;99.90
9209;DHT22;4639;48.862;9.188;2022-07-01T12:02:13;18.60;99.90
9209;DHT22;4639;48.862;9.188;2022-07-01T12:04:43;18.60;99.90
9209;DHT22;4639;48.862;9.188;2022-07-01T12:07:11;18.60;99.90
9209;DHT22;4639;48.862;9.188;2022-07-01T12:09:37;18.60;99.90
9209;DHT22;4639;48.862;9.188;2022-07-01T12:12:04;18.50;99.90
9209;DHT22;4639;48.862;9.188;2022-07-01T12:14:32;18.30;99.90
9209;DHT22;4639;48.862;9.188;2022-07-01T12:17:01;18.30;99.90
9209;DHT22;4639;48.862;9.188;2022-07-01T12:19:39;18.00;99.90
9209;DHT22;4639;48.862;9.188;2022-07-01T12:22:10;17.90;99.90
9209;DHT22;4639;48.862;9.188;2022-07-01T12:24:36;18.10;99.90
9209;DHT22;4639;48.862;9.188;2022-07-01T12:27:03;18.40;99.90
9209;DHT22;4639;48.862;9.188;2022-07-01T12:32:14;18.80;99.90
9209;DHT22;4639;48.862;9.188;2022-07-01T12:34:52;19.00;99.90
9209;DHT22;4639;48.862;9.188;2022-07-01T12:37:24;19.80;99.90
9209;DHT22;4639;48.862;9.188;2022-07-01T12:40:02;19.80;99.90
9209;DHT22;4639;48.862;9.188;2022-07-01T12:42:42;20.00;99.90
9209;DHT22;4639;48.862;9.188;2022-07-01T12:45:10;19.70;99.90
9209;DHT22;4639;48.862;9.188;2022-07-01T12:47:39;19.60;99.90
9209;DHT22;4639;48.862;9.188;2022-07-01T12:50:21;19.70;99.90
9209;DHT22;4639;48.862;9.188;2022-07-01T12:53:11;19.90;99.90
9209;DHT22;4639;48.862;9.188;2022-07-01T12:55:39;20.00;99.90
9209;DHT22;4639;48.862;9.188;2022-07-01T12:58:13;20.10;99.90
9209;DHT22;4639;48.862;9.188;2022-07-01T13:00:44;20.20;99.90
9209;DHT22;4639;48.862;9.188;2022-07-01T13:03:10;20.30;99.90
9209;DHT22;4639;48.862;9.188;2022-07-01T13:05:37;20.20;99.90
9209;DHT22;4639;48.862;9.188;2022-07-01T13:08:05;20.30;99.90
9209;DHT22;4639;48.862;9.188;2022-07-01T13:10:31;20.30;99.90
9209;DHT22;4639;48.862;9.188;2022-07-01T13:12:58;20.40;99.90
9209;DHT22;4639;48.862;9.188;2022-07-01T13:15:24;20.70;99.90
9209;DHT22;4639;48.862;9.188;2022-07-01T13:17:50;20.70;99.90
9209;DHT22;4639;48.862;9.188;2022-07-01T13:20:16;21.20;99.90
9209;DHT22;4639;48.862;9.188;2022-07-01T13:22:43;21.80;99.90
9209;DHT22;4639;48.862;9.188;2022-07-01T13:25:09;22.20;99.90
9209;DHT22;4639;48.862;9.188;2022-07-01T13:27:35;22.20;99.90
9209;DHT22;4639;48.862;9.188;2022-07-01T13:30:01;22.30;99.90
9209;DHT22;4639;48.862;9.188;2022-07-01T13:32:28;22.00;99.90
9209;DHT22;4639;48.862;9.188;2022-07-01T13:34:54;21.70;99.90
9209;DHT22;4639;48.862;9.188;2022-07-01T13:37:19;21.50;99.90
9209;DHT22;4639;48.862;9.188;2022-07-01T13:39:45;21.40;99.90
9209;DHT22;4639;48.862;9.188;2022-07-01T13:42:11;21.20;99.90
9209;DHT22;4639;48.862;9.188;2022-07-01T13:44:36;21.00;99.90
9209;DHT22;4639;48.862;9.188;2022-07-01T13:47:02;20.90;99.90
9209;DHT22;4639;48.862;9.188;2022-07-01T13:49:30;21.00;99.90
9209;DHT22;4639;48.862;9.188;2022-07-01T13:51:56;21.00;99.90
9209;DHT22;4639;48.862;9.188;2022-07-01T13:54:22;21.30;99.90
9209;DHT22;4639;48.862;9.188;2022-07-01T13:56:48;21.00;99.90
9209;DHT22;4639;48.862;9.188;2022-07-01T13:59:13;21.00;99.90
9209;DHT22;4639;48.862;9.188;2022-07-01T14:01:39;20.90;99.90
9209;DHT22;4639;48.862;9.188;2022-07-01T14:04:04;20.90;99.90
9209;DHT22;4639;48.862;9.188;2022-07-01T14:06:30;20.80;99.90
9209;DHT22;4639;48.862;9.188;2022-07-01T14:08:56;20.80;99.90
9209;DHT22;4639;48.862;9.188;2022-07-01T14:11:22;20.90;99.90
9209;DHT22;4639;48.862;9.188;2022-07-01T14:13:47;20.70;99.90
9209;DHT22;4639;48.862;9.188;2022-07-01T14:16:13;20.60;99.90
9209;DHT22;4639;48.862;9.188;2022-07-01T14:18:39;20.60;99.90
9209;DHT22;4639;48.862;9.188;2022-07-01T14:21:05;20.80;99.90
9209;DHT22;4639;48.862;9.188;2022-07-01T14:23:31;21.00;99.90
9209;DHT22;4639;48.862;9.188;2022-07-01T14:25:57;21.20;99.90
9209;DHT22;4639;48.862;9.188;2022-07-01T14:28:22;21.20;99.90
9209;DHT22;4639;48.862;9.188;2022-07-01T14:30:48;21.10;99.90
9209;DHT22;4639;48.862;9.188;2022-07-01T14:33:15;21.10;99.90
9209;DHT22;4639;48.862;9.188;2022-07-01T14:35:41;21.10;99.90
9209;DHT22;4639;48.862;9.188;2022-07-01T14:38:06;21.20;99.90
9209;DHT22;4639;48.862;9.188;2022-07-01T14:40:32;21.40;99.90
9209;DHT22;4639;48.862;9.188;2022-07-01T14:42:59;21.40;99.90
9209;DHT22;4639;48.862;9.188;2022-07-01T14:45:25;21.20;99.90
9209;DHT22;4639;48.862;9.188;2022-07-01T14:47:50;20.90;99.90
9209;DHT22;4639;48.862;9.188;2022-07-01T14:50:16;20.80;99.90
9209;DHT22;4639;48.862;9.188;2022-07-01T14:52:42;20.90;99.90
9209;DHT22;4639;48.862;9.188;2022-07-01T14:55:08;20.90;99.90
9209;DHT22;4639;48.862;9.188;2022-07-01T14:57:34;20.80;99.90
9209;DHT22;4639;48.862;9.188;2022-07-01T15:00:01;20.70;99.90
9209;DHT22;4639;48.862;9.188;2022-07-01T15:02:30;20.50;99.90
9209;DHT22;4639;48.862;9.188;2022-07-01T15:04:56;20.60;99.90
9209;DHT22;4639;48.862;9.188;2022-07-01T15:07:22;20.90;99.90
9209;DHT22;4639;48.862;9.188;2022-07-01T15:09:50;21.20;99.90
9209;DHT22;4639;48.862;9.188;2022-07-01T15:12:15;21.50;99.90
9209;DHT22;4639;48.862;9.188;2022-07-01T15:14:41;21.80;99.90
9209;DHT22;4639;48.862;9.188;2022-07-01T15:17:07;22.10;99.90
9209;DHT22;4639;48.862;9.188;2022-07-01T15:19:33;22.40;99.90
9209;DHT22;4639;48.862;9.188;2022-07-01T15:21:58;22.60;99.90
9209;DHT22;4639;48.862;9.188;2022-07-01T15:24:24;22.60;99.90
9209;DHT22;4639;48.862;9.188;2022-07-01T15:26:51;22.40;99.90
9209;DHT22;4639;48.862;9.188;2022-07-01T15:29:17;22.30;99.90
9209;DHT22;4639;48.862;9.188;2022-07-01T15:31:43;21.70;99.90
9209;DHT22;4639;48.862;9.188;2022-07-01T15:34:09;21.30;99.90
9209;DHT22;4639;48.862;9.188;2022-07-01T15:36:36;21.20;99.90
9209;DHT22;4639;48.862;9.188;2022-07-01T15:39:02;21.20;99.90
9209;DHT22;4639;48.862;9.188;2022-07-01T15:41:28;21.30;99.90
9209;DHT22;4639;48.862;9.188;2022-07-01T15:43:54;21.20;99.90
9209;DHT22;4639;48.862;9.188;2022-07-01T15:46:20;21.20;99.90
9209;DHT22;4639;48.862;9.188;2022-07-01T15:48:45;21.10;99.90
9209;DHT22;4639;48.862;9.188;2022-07-01T15:51:12;20.90;99.90
9209;DHT22;4639;48.862;9.188;2022-07-01T15:53:37;20.80;99.90
9209;DHT22;4639;48.862;9.188;2022-07-01T15:56:03;20.70;99.90
9209;DHT22;4639;48.862;9.188;2022-07-01T15:58:29;20.60;99.90
9209;DHT22;4639;48.862;9.188;2022-07-01T16:00:57;20.60;99.90
9209;DHT22;4639;48.862;9.188;2022-07-01T16:03:23;20.90;99.90
9209;DHT22;4639;48.862;9.188;2022-07-01T16:05:52;21.40;99.90
9209;DHT22;4639;48.862;9.188;2022-07-01T16:08:24;22.00;99.90
9209;DHT22;4639;48.862;9.188;2022-07-01T16:10:51;22.50;99.90
9209;DHT22;4639;48.862;9.188;2022-07-01T16:13:21;22.80;99.90
9209;DHT22;4639;48.862;9.188;2022-07-01T16:15:49;23.00;99.90
9209;DHT22;4639;48.862;9.188;2022-07-01T16:18:16;23.00;99.90
9209;DHT22;4639;48.862;9.188;2022-07-01T16:20:47;23.00;99.90
9209;DHT22;4639;48.862;9.188;2022-07-01T16:23:20;23.10;99.90